Time;durP1;ratioP1;P1;durP2;ratioP2;P2;SDS_P1;SDS_P2;PMS_P1;PMS_P2;Temp;Humidity;BMP_temperature;BMP_pressure;BME280_temperature;BME280_humidity;BME280_pressure;Samples;Min_cycle;Max_cycle;Signal;HPM_P1;HPM_P2
2024/01/28 00:00:02;;;;;;;3.13;2.20;;;22.70;54.00;;;;;;5073802;28;20558;-42
2024/01/28 00:02:29;;;;;;;4.60;2.80;;;22.60;54.00;;;;;;5073584;28;20076;-42
2024/01/28 00:04:55;;;;;;;2.70;1.60;;;22.40;54.30;;;;;;5075729;28;20152;-46
2024/01/28 00:07:22;;;;;;;7.32;2.03;;;22.30;54.80;;;;;;5077408;28;20079;-45
2024/01/28 00:09:48;;;;;;;9.75;1.80;;;22.20;55.60;;;;;;5075024;28;20153;-45
2024/01/28 00:12:14;;;;;;;2.67;2.00;;;22.20;55.80;;;;;;5073104;28;20081;-42
2024/01/28 00:14:41;;;;;;;6.75;1.95;;;22.20;56.10;;;;;;5071321;28;20203;-45
2024/01/28 00:17:07;;;;;;;5.68;1.92;;;22.30;55.80;;;;;;5077083;28;20178;-42
2024/01/28 00:19:34;;;;;;;5.63;2.45;;;22.40;55.10;;;;;;5070642;28;20096;-43
2024/01/28 00:22:00;;;;;;;5.28;2.33;;;22.40;54.80;;;;;;5073576;28;20077;-46
2024/01/28 00:24:27;;;;;;;6.90;2.50;;;22.30;54.90;;;;;;5072406;28;20535;-45
2024/01/28 00:26:54;;;;;;;2.65;2.20;;;22.30;55.40;;;;;;5074820;28;20432;-52
2024/01/28 00:29:28;;;;;;;8.15;2.15;;;22.50;54.90;;;;;;5059992;28;20085;-46
2024/01/28 00:32:01;;;;;;;5.57;2.45;;;22.70;54.60;;;;;;5071592;28;20072;-43
2024/01/28 00:34:27;;;;;;;3.58;1.92;;;22.60;54.30;;;;;;5069414;28;20538;-43
2024/01/28 00:36:54;;;;;;;10.98;3.95;;;22.40;54.20;;;;;;5073116;28;20210;-54
2024/01/28 00:39:21;;;;;;;6.18;2.35;;;22.10;55.40;;;;;;5073782;28;20073;-45
2024/01/28 00:41:47;;;;;;;3.08;2.47;;;21.80;56.00;;;;;;5071317;28;20168;-45
2024/01/28 00:44:14;;;;;;;3.92;2.80;;;21.70;55.40;;;;;;5073707;28;20552;-45
2024/01/28 00:46:40;;;;;;;6.47;2.72;;;21.50;55.80;;;;;;5070608;28;20547;-46
2024/01/28 00:49:07;;;;;;;4.72;2.40;;;21.50;56.60;;;;;;5074305;28;20107;-47
2024/01/28 00:51:34;;;;;;;8.55;3.03;;;21.40;56.80;;;;;;5074971;28;20091;-46
2024/01/28 00:54:04;;;;;;;7.07;3.00;;;21.30;57.70;;;;;;5073660;28;20128;-49
2024/01/28 00:56:30;;;;;;;16.20;7.65;;;21.20;58.40;;;;;;5055175;28;20440;-50
2024/01/28 00:58:57;;;;;;;7.18;3.58;;;21.10;57.90;;;;;;5074411;28;20616;-48
2024/01/28 01:01:23;;;;;;;12.27;3.65;;;21.00;57.70;;;;;;5073018;28;20525;-49
2024/01/28 01:03:50;;;;;;;12.32;4.13;;;20.80;58.30;;;;;;5070787;28;20105;-51
2024/01/28 01:06:16;;;;;;;14.50;5.53;;;20.70;58.50;;;;;;5075978;28;20117;-52
2024/01/28 01:08:43;;;;;;;27.63;12.38;;;20.70;59.00;;;;;;5073652;28;20076;-58
2024/01/28 01:11:09;;;;;;;16.63;10.98;;;20.50;59.30;;;;;;5074858;28;20564;-52
2024/01/28 01:13:36;;;;;;;30.00;20.45;;;20.50;59.80;;;;;;5070697;28;20906;-48
2024/01/28 01:16:02;;;;;;;22.65;6.88;;;20.30;60.20;;;;;;5072424;28;20134;-47
2024/01/28 01:18:29;;;;;;;19.88;8.73;;;20.20;60.30;;;;;;5055756;28;20432;-45
2024/01/28 01:20:55;;;;;;;23.63;9.85;;;20.10;60.50;;;;;;5072126;28;20444;-46
2024/01/28 01:23:22;;;;;;;17.00;8.02;;;20.10;61.10;;;;;;5070110;28;20584;-47
2024/01/28 01:25:49;;;;;;;19.55;6.43;;;20.00;61.50;;;;;;5071189;28;21559;-54
2024/01/28 01:28:15;;;;;;;25.08;6.35;;;19.90;61.70;;;;;;5078690;28;20073;-48
2024/01/28 01:30:42;;;;;;;23.73;7.57;;;19.80;62.80;;;;;;5078286;28;20077;-49
2024/01/28 01:33:08;;;;;;;19.27;7.03;;;19.70;62.80;;;;;;5078249;28;20436;-47
2024/01/28 01:35:36;;;;;;;17.88;7.25;;;19.60;63.70;;;;;;5076815;28;20080;-48
2024/01/28 01:38:02;;;;;;;28.98;8.77;;;19.40;64.70;;;;;;5079185;28;20068;-48
2024/01/28 01:40:29;;;;;;;37.45;10.00;;;19.30;65.40;;;;;;5076559;28;20219;-51
2024/01/28 01:42:55;;;;;;;37.90;13.88;;;19.20;66.00;;;;;;5076273;28;20437;-48
2024/01/28 01:45:22;;;;;;;43.05;15.98;;;19.10;65.80;;;;;;5077000;28;20084;-44
2024/01/28 01:47:49;;;;;;;36.58;15.57;;;19.10;66.40;;;;;;5078614;28;20187;-53
2024/01/28 01:50:16;;;;;;;48.28;21.60;;;19.00;66.40;;;;;;5077835;28;20482;-48
2024/01/28 01:52:45;;;;;;;46.50;21.58;;;19.00;66.90;;;;;;5054930;28;20082;-45
2024/01/28 01:55:12;;;;;;;42.92;20.60;;;18.90;66.60;;;;;;5058739;28;20180;-52
2024/01/28 01:57:42;;;;;;;48.28;17.83;;;18.90;66.80;;;;;;5073917;28;20080;-48
2024/01/28 02:00:12;;;;;;;51.00;19.15;;;18.80;66.90;;;;;;5076105;28;20482;-48
2024/01/28 02:02:40;;;;;;;44.75;16.10;;;18.80;67.10;;;;;;5071648;28;20107;-48
2024/01/28 02:05:06;;;;;;;46.58;14.98;;;18.70;67.70;;;;;;5076021;28;20165;-48
2024/01/28 02:07:33;;;;;;;33.50;12.52;;;18.70;67.30;;;;;;5072102;28;20096;-49
2024/01/28 02:09:59;;;;;;;48.28;12.32;;;18.60;67.40;;;;;;5076789;28;20084;-52
2024/01/28 02:12:26;;;;;;;38.97;12.07;;;18.60;67.50;;;;;;5076619;28;20137;-50
2024/01/28 02:15:07;;;;;;;35.22;11.55;;;18.50;68.50;;;;;;5075758;28;20175;-52
2024/01/28 02:17:34;;;;;;;35.10;11.73;;;18.50;68.70;;;;;;5077744;28;20118;-55
2024/01/28 02:20:00;;;;;;;40.65;12.15;;;18.40;69.70;;;;;;5076569;28;20131;-50
2024/01/28 02:22:27;;;;;;;36.13;12.18;;;18.30;70.10;;;;;;5072577;28;20084;-52
2024/01/28 02:24:53;;;;;;;46.85;12.00;;;18.20;70.20;;;;;;5077700;28;20195;-48
2024/01/28 02:27:20;;;;;;;43.08;16.33;;;18.10;71.30;;;;;;5073221;28;20069;-46
2024/01/28 02:29:47;;;;;;;58.00;20.70;;;18.00;71.70;;;;;;5075400;28;20073;-55
2024/01/28 02:32:16;;;;;;;75.45;22.25;;;17.90;72.40;;;;;;5074910;28;20123;-49
2024/01/28 02:34:43;;;;;;;58.70;21.15;;;17.90;73.50;;;;;;5075612;28;20141;-46
2024/01/28 02:37:10;;;;;;;63.72;19.35;;;17.80;73.50;;;;;;5057813;28;20082;-55
2024/01/28 02:39:40;;;;;;;52.50;17.63;;;17.70;73.50;;;;;;5078222;28;20073;-48
2024/01/28 02:42:06;;;;;;;44.13;16.73;;;17.60;74.60;;;;;;5058431;28;20073;-45
2024/01/28 02:44:33;;;;;;;58.67;18.15;;;17.50;76.00;;;;;;5078251;28;20097;-48
2024/01/28 02:47:02;;;;;;;69.55;20.20;;;17.40;76.50;;;;;;5076665;28;20076;-49
2024/01/28 02:49:29;;;;;;;59.65;19.08;;;17.30;76.60;;;;;;5076738;28;20183;-48
2024/01/28 02:51:55;;;;;;;52.92;22.40;;;17.20;77.60;;;;;;5078129;28;20103;-51
2024/01/28 02:54:23;;;;;;;58.25;23.02;;;17.10;79.00;;;;;;5073946;28;20119;-49
2024/01/28 02:56:51;;;;;;;53.25;22.30;;;17.00;78.50;;;;;;5076324;28;20611;-47
2024/01/28 02:59:18;;;;;;;70.20;23.83;;;16.90;79.20;;;;;;5075365;28;20089;-53
2024/01/28 03:01:46;;;;;;;64.00;23.80;;;16.80;79.80;;;;;;5075966;28;20079;-48
2024/01/28 03:04:13;;;;;;;51.80;21.27;;;16.70;81.00;;;;;;5075852;28;20112;-47
2024/01/28 03:06:41;;;;;;;61.65;19.88;;;16.70;81.40;;;;;;5073326;28;20248;-50
2024/01/28 03:09:07;;;;;;;49.97;17.77;;;16.60;81.90;;;;;;5077089;28;20118;-48
2024/01/28 03:11:36;;;;;;;46.28;16.15;;;16.60;83.90;;;;;;5077136;28;20160;-47
2024/01/28 03:14:02;;;;;;;66.00;17.80;;;16.50;82.50;;;;;;5075923;28;20069;-46
2024/01/28 03:16:29;;;;;;;56.20;18.02;;;16.50;83.40;;;;;;5059794;28;20155;-48
2024/01/28 03:18:55;;;;;;;57.63;19.13;;;16.40;82.90;;;;;;5075379;28;20107;-56
2024/01/28 03:21:22;;;;;;;71.22;19.75;;;16.30;83.80;;;;;;5075481;28;20091;-47
2024/01/28 03:23:48;;;;;;;59.80;19.70;;;16.30;84.00;;;;;;5074034;28;20104;-49
2024/01/28 03:26:15;;;;;;;38.67;16.33;;;16.30;84.30;;;;;;5075660;28;20081;-45
2024/01/28 03:28:42;;;;;;;38.72;16.27;;;16.20;85.80;;;;;;5075113;28;20079;-50
2024/01/28 03:31:09;;;;;;;49.63;16.55;;;16.20;85.10;;;;;;5074864;28;20088;-48
2024/01/28 03:33:35;;;;;;;51.03;16.77;;;16.20;85.00;;;;;;5072385;28;20114;-47
2024/01/28 03:36:02;;;;;;;50.63;16.90;;;16.10;85.40;;;;;;5077404;28;20069;-47
2024/01/28 03:38:28;;;;;;;51.55;16.48;;;16.20;86.30;;;;;;5075123;28;20069;-47
2024/01/28 03:40:55;;;;;;;41.80;16.30;;;16.20;86.20;;;;;;5076165;28;20096;-54
2024/01/28 03:43:21;;;;;;;59.60;19.80;;;16.20;86.00;;;;;;5074977;28;20096;-45
2024/01/28 03:45:48;;;;;;;55.83;18.20;;;16.10;86.80;;;;;;5078954;28;20083;-46
2024/01/28 03:48:14;;;;;;;42.45;18.23;;;16.10;86.50;;;;;;5070635;28;20179;-46
2024/01/28 03:50:41;;;;;;;44.60;21.70;;;16.10;86.10;;;;;;5075261;28;20529;-47
2024/01/28 03:53:07;;;;;;;41.67;22.33;;;16.10;85.20;;;;;;5074764;28;20077;-45
2024/01/28 03:55:35;;;;;;;47.80;21.42;;;16.10;83.80;;;;;;5063286;28;20131;-42
2024/01/28 03:58:01;;;;;;;52.88;15.52;;;16.10;83.60;;;;;;5074973;28;20069;-45
2024/01/28 04:00:31;;;;;;;35.33;12.88;;;16.10;83.30;;;;;;5077917;28;20077;-50
2024/01/28 04:02:58;;;;;;;26.58;11.82;;;16.10;82.00;;;;;;5076065;28;20120;-47
2024/01/28 04:05:24;;;;;;;30.13;11.85;;;16.10;81.70;;;;;;5075515;28;20149;-50
2024/01/28 04:07:51;;;;;;;35.38;11.70;;;16.10;81.60;;;;;;5073431;28;20155;-43
2024/01/28 04:10:17;;;;;;;42.05;11.68;;;16.10;82.40;;;;;;5079149;28;20147;-47
2024/01/28 04:12:44;;;;;;;37.03;11.43;;;16.10;82.30;;;;;;5057974;28;20117;-43
2024/01/28 04:15:11;;;;;;;24.98;10.07;;;16.10;81.10;;;;;;5075585;28;20081;-50
2024/01/28 04:17:38;;;;;;;31.23;10.23;;;16.10;81.30;;;;;;5076391;28;20066;-45
2024/01/28 04:20:05;;;;;;;25.23;10.05;;;16.10;81.10;;;;;;5074165;28;20075;-45
2024/01/28 04:22:31;;;;;;;25.63;11.10;;;16.10;81.60;;;;;;5076770;28;20077;-47
2024/01/28 04:24:58;;;;;;;28.85;12.68;;;16.10;82.00;;;;;;5075967;28;20112;-47
2024/01/28 04:27:24;;;;;;;34.67;20.25;;;16.10;81.40;;;;;;5077251;28;20516;-45
2024/01/28 04:29:51;;;;;;;92.70;49.63;;;16.00;81.60;;;;;;5058712;28;20552;-56
2024/01/28 04:32:18;;;;;;;80.00;43.78;;;16.00;81.30;;;;;;5076531;28;20064;-43
2024/01/28 04:34:44;;;;;;;51.35;28.75;;;16.00;80.80;;;;;;5076082;28;20080;-46
2024/01/28 04:37:11;;;;;;;54.17;28.20;;;16.00;78.90;;;;;;5075849;28;20448;-45
2024/01/28 04:39:37;;;;;;;50.63;22.17;;;16.10;78.60;;;;;;5060275;28;20076;-54
2024/01/28 04:42:04;;;;;;;48.28;18.77;;;16.10;79.40;;;;;;5074073;28;20076;-46
2024/01/28 04:44:31;;;;;;;46.17;18.52;;;16.10;78.40;;;;;;5078860;28;20215;-52
2024/01/28 04:46:58;;;;;;;42.38;16.85;;;16.10;77.70;;;;;;5076978;28;20115;-50
2024/01/28 04:49:25;;;;;;;38.38;11.88;;;16.10;78.20;;;;;;5071525;28;20069;-50
2024/01/28 04:51:52;;;;;;;27.50;12.82;;;16.20;76.50;;;;;;5075079;28;20627;-48
2024/01/28 04:54:19;;;;;;;33.53;12.48;;;16.20;76.10;;;;;;5072316;28;20205;-47
2024/01/28 04:56:46;;;;;;;37.42;13.73;;;16.20;76.00;;;;;;5073102;28;20081;-45
2024/01/28 04:59:12;;;;;;;32.65;13.38;;;16.20;76.50;;;;;;5076995;28;20085;-45
2024/01/28 05:01:39;;;;;;;34.53;16.45;;;16.20;77.60;;;;;;5076273;28;20081;-48
2024/01/28 05:04:05;;;;;;;40.58;16.75;;;16.10;78.10;;;;;;5076622;28;20123;-47
2024/01/28 05:06:35;;;;;;;49.78;14.23;;;16.00;78.10;;;;;;5057857;28;20150;-51
2024/01/28 05:09:06;;;;;;;35.97;13.68;;;16.00;79.00;;;;;;5075513;28;20103;-44
2024/01/28 07:43:09;;;;;;;57.45;27.80;;;13.60;95.40;;;;;;5108394;27;20728;-50
2024/01/28 07:45:37;;;;;;;78.95;29.75;;;14.10;94.30;;;;;;5089728;28;20091;-49
2024/01/28 07:48:04;;;;;;;72.95;29.60;;;14.10;94.30;;;;;;5087924;28;20077;-50
2024/01/28 07:50:31;;;;;;;94.00;29.85;;;14.00;94.80;;;;;;5082123;28;20429;-49
2024/01/28 07:52:57;;;;;;;60.65;26.38;;;14.00;94.80;;;;;;5082807;28;20096;-57
2024/01/28 07:55:24;;;;;;;48.67;21.63;;;13.90;94.50;;;;;;5084383;28;20514;-50
2024/01/28 07:57:50;;;;;;;42.05;16.88;;;13.90;93.90;;;;;;5082842;28;20083;-50
2024/01/28 08:00:17;;;;;;;43.83;15.40;;;13.90;93.60;;;;;;5083331;28;20073;-50
2024/01/28 08:02:43;;;;;;;39.35;11.85;;;13.90;93.50;;;;;;5082138;28;20119;-54
2024/01/28 08:05:10;;;;;;;35.85;10.82;;;13.90;93.60;;;;;;5086220;28;20531;-56
2024/01/28 08:07:36;;;;;;;24.65;8.68;;;13.90;93.50;;;;;;5082604;28;20519;-50
2024/01/28 08:10:03;;;;;;;23.42;7.63;;;13.90;93.90;;;;;;5083640;28;20072;-51
2024/01/28 08:12:30;;;;;;;23.33;6.88;;;13.80;93.90;;;;;;5085276;28;20082;-51
2024/01/28 08:14:56;;;;;;;20.95;6.88;;;13.70;94.40;;;;;;5080020;28;20440;-49
2024/01/28 08:17:23;;;;;;;22.85;7.70;;;13.70;94.80;;;;;;5083781;28;20149;-53
2024/01/28 08:19:49;;;;;;;23.15;7.32;;;13.60;94.80;;;;;;5083507;28;20094;-50
2024/01/28 08:22:16;;;;;;;27.35;6.50;;;13.60;95.40;;;;;;5082108;28;20132;-49
2024/01/28 08:24:42;;;;;;;27.08;6.78;;;13.50;95.40;;;;;;5084056;28;20073;-48
2024/01/28 08:27:09;;;;;;;22.38;6.65;;;13.50;95.50;;;;;;5082972;28;20100;-49
2024/01/28 08:29:37;;;;;;;21.88;6.25;;;13.40;96.00;;;;;;5083492;28;20542;-55
2024/01/28 08:32:04;;;;;;;18.92;5.47;;;13.40;96.60;;;;;;5083614;28;20114;-48
2024/01/28 08:34:31;;;;;;;17.08;4.15;;;13.40;96.70;;;;;;5080454;28;20073;-48
2024/01/28 08:36:58;;;;;;;14.07;4.25;;;13.40;96.60;;;;;;5083443;28;20069;-48
2024/01/28 08:39:25;;;;;;;15.02;5.03;;;13.40;96.00;;;;;;5082895;28;20084;-48
2024/01/28 08:41:51;;;;;;;8.00;3.30;;;13.50;95.90;;;;;;5082288;28;20140;-52
2024/01/28 08:44:20;;;;;;;7.13;2.42;;;13.60;95.00;;;;;;5069507;28;20084;-50
2024/01/28 08:46:46;;;;;;;8.45;2.25;;;13.70;94.40;;;;;;5068489;28;20136;-49
2024/01/28 08:49:13;;;;;;;15.77;2.15;;;13.70;93.90;;;;;;5069461;28;20177;-48
2024/01/28 08:51:40;;;;;;;8.57;1.83;;;13.80;93.70;;;;;;5069577;28;20114;-49
2024/01/28 08:54:06;;;;;;;5.28;2.00;;;13.90;93.50;;;;;;5069289;28;20073;-49
2024/01/28 08:56:33;;;;;;;9.30;1.58;;;14.00;93.00;;;;;;5068652;28;20129;-50
2024/01/28 08:58:59;;;;;;;6.25;1.40;;;14.10;92.60;;;;;;5069033;28;20073;-50
2024/01/28 09:01:26;;;;;;;8.32;1.50;;;14.20;92.10;;;;;;5068853;28;20111;-50
2024/01/28 09:03:52;;;;;;;6.90;1.33;;;14.30;91.60;;;;;;5069368;28;20159;-49
2024/01/28 09:06:19;;;;;;;3.45;1.38;;;14.30;91.90;;;;;;5068863;28;20069;-49
2024/01/28 09:08:45;;;;;;;8.82;1.40;;;14.30;92.10;;;;;;5067298;28;20231;-51
2024/01/28 09:11:12;;;;;;;10.52;1.70;;;14.30;91.90;;;;;;5069182;28;20069;-49
2024/01/28 09:13:38;;;;;;;3.25;1.30;;;14.20;91.70;;;;;;5069248;28;20115;-50
2024/01/28 09:16:05;;;;;;;1.98;1.42;;;14.20;91.20;;;;;;5067566;28;20070;-52
2024/01/28 09:18:31;;;;;;;4.00;1.52;;;14.20;91.10;;;;;;5068495;28;20424;-50
2024/01/28 09:20:59;;;;;;;1.50;1.20;;;14.20;90.60;;;;;;5069407;28;20467;-50
2024/01/28 09:23:25;;;;;;;6.57;1.65;;;14.20;90.50;;;;;;5069563;28;20077;-51
2024/01/28 09:25:52;;;;;;;3.78;1.35;;;14.30;90.80;;;;;;5068501;28;20101;-53
2024/01/28 09:28:18;;;;;;;11.77;4.40;;;14.20;91.30;;;;;;5068053;28;20077;-55
2024/01/28 09:30:45;;;;;;;8.68;5.57;;;14.10;91.50;;;;;;5069285;28;20077;-50
2024/01/28 09:33:11;;;;;;;8.50;4.25;;;14.10;91.50;;;;;;5070809;28;20097;-53
2024/01/28 09:35:42;;;;;;;8.13;3.40;;;14.00;91.60;;;;;;5083600;28;20084;-55
2024/01/28 09:38:08;;;;;;;11.52;3.30;;;13.90;92.00;;;;;;5089410;28;20089;-51
2024/01/28 09:40:35;;;;;;;13.20;3.17;;;13.80;92.60;;;;;;5087602;28;20080;-53
2024/01/28 09:43:28;;;;;;;8.57;3.05;;;13.70;92.80;;;;;;5077768;28;20195;-53
2024/01/28 09:45:55;;;;;;;9.32;3.38;;;13.80;93.00;;;;;;5082956;28;20533;-57
2024/01/28 09:48:22;;;;;;;6.78;3.22;;;13.70;93.20;;;;;;5083104;28;20073;-53
2024/01/28 09:50:49;;;;;;;13.65;4.63;;;13.70;93.90;;;;;;5067198;28;20065;-53
2024/01/28 09:53:16;;;;;;;14.23;4.38;;;13.60;94.00;;;;;;5068390;28;20080;-56
2024/01/28 09:55:43;;;;;;;12.68;4.32;;;13.60;94.40;;;;;;5066454;28;20167;-53
2024/01/28 09:58:10;;;;;;;13.07;4.90;;;13.60;94.80;;;;;;5068786;28;20523;-50
2024/01/28 10:00:40;;;;;;;22.10;6.20;;;13.50;95.00;;;;;;5066766;28;20076;-60
2024/01/28 10:03:08;;;;;;;11.85;5.53;;;13.50;95.50;;;;;;5065893;28;20164;-60
2024/01/28 10:05:35;;;;;;;11.95;5.32;;;14.30;94.30;;;;;;5067849;28;20084;-60
2024/01/28 10:08:05;;;;;;;18.70;5.90;;;15.10;92.20;;;;;;5062060;28;20076;-61
2024/01/28 10:10:35;;;;;;;16.27;5.70;;;15.30;92.50;;;;;;5069047;28;20077;-60
2024/01/28 10:13:03;;;;;;;17.92;5.50;;;15.40;92.10;;;;;;5072519;28;20080;-60
2024/01/28 10:15:33;;;;;;;18.92;5.47;;;15.40;91.70;;;;;;5063608;28;20196;-61
2024/01/28 10:17:59;;;;;;;12.23;5.38;;;15.50;92.00;;;;;;5064791;28;20160;-61
2024/01/28 10:20:30;;;;;;;13.45;5.15;;;15.40;92.40;;;;;;5066620;28;20073;-61
2024/01/28 10:22:57;;;;;;;11.57;4.95;;;15.50;92.20;;;;;;5067063;28;20078;-61
2024/01/28 10:25:23;;;;;;;9.88;4.43;;;15.70;91.70;;;;;;5066704;28;20184;-61
2024/01/28 10:27:50;;;;;;;15.90;4.07;;;15.80;91.10;;;;;;5066259;28;20073;-61
2024/01/28 10:30:22;;;;;;;11.02;3.83;;;15.80;91.40;;;;;;5066444;28;20130;-61
2024/01/28 10:32:48;;;;;;;13.40;5.63;;;15.50;91.10;;;;;;5064931;28;20081;-61
2024/01/28 10:35:18;;;;;;;13.77;4.82;;;15.30;92.10;;;;;;5065012;28;20112;-59
2024/01/28 10:37:51;;;;;;;8.85;4.07;;;15.30;92.10;;;;;;5064670;28;20077;-59
2024/01/28 10:40:18;;;;;;;12.02;4.22;;;15.40;92.50;;;;;;5064981;28;20085;-59
2024/01/28 10:42:49;;;;;;;10.30;3.95;;;15.50;91.90;;;;;;5069128;28;20112;-59
2024/01/28 10:45:19;;;;;;;14.95;3.88;;;15.30;92.00;;;;;;5074157;28;20080;-60
2024/01/28 10:47:52;;;;;;;13.60;4.28;;;15.30;92.40;;;;;;5065499;28;20100;-59
2024/01/28 10:50:21;;;;;;;21.05;4.60;;;15.10;92.40;;;;;;5064770;28;20081;-59
2024/01/28 10:52:48;;;;;;;15.60;4.00;;;15.00;92.30;;;;;;5064792;28;20085;-59
2024/01/28 10:55:16;;;;;;;14.60;3.45;;;15.20;92.30;;;;;;5064637;28;20467;-59
2024/01/28 10:57:44;;;;;;;16.05;3.92;;;15.30;92.20;;;;;;5074407;28;20069;-59
2024/01/28 11:00:20;;;;;;;16.00;3.97;;;14.90;92.50;;;;;;5069497;28;20100;-59
2024/01/28 11:02:49;;;;;;;8.73;3.53;;;14.80;93.10;;;;;;5069632;28;20100;-60
2024/01/28 11:05:16;;;;;;;13.32;4.60;;;14.60;93.90;;;;;;5077235;28;20884;-59
2024/01/28 11:07:43;;;;;;;17.23;4.45;;;14.50;94.40;;;;;;5065776;28;20073;-59
2024/01/28 11:10:10;;;;;;;16.48;4.22;;;14.60;93.90;;;;;;5063859;28;20168;-61
2024/01/28 11:12:37;;;;;;;10.32;3.92;;;14.60;94.00;;;;;;5064511;28;20459;-61
2024/01/28 11:15:04;;;;;;;15.93;4.30;;;14.50;94.30;;;;;;5064755;28;20471;-61
2024/01/28 11:17:34;;;;;;;16.52;4.57;;;14.50;94.20;;;;;;5062743;28;20551;-60
2024/01/28 11:20:17;;;;;;;17.13;4.70;;;14.30;94.90;;;;;;5063772;28;20083;-60
2024/01/28 11:22:54;;;;;;;16.20;4.22;;;14.30;94.80;;;;;;5064333;28;20096;-60
2024/01/28 11:25:25;;;;;;;11.38;4.75;;;14.10;95.50;;;;;;5064216;28;20076;-61
2024/01/28 11:28:03;;;;;;;16.85;4.70;;;14.00;95.90;;;;;;5063224;28;20095;-60
2024/01/28 11:30:29;;;;;;;15.57;4.93;;;14.00;96.50;;;;;;5065179;28;20083;-60
2024/01/28 11:33:10;;;;;;;15.82;4.78;;;14.00;96.10;;;;;;5062728;28;20069;-59
2024/01/28 11:35:36;;;;;;;25.13;5.40;;;13.90;96.70;;;;;;5063629;28;20083;-60
2024/01/28 11:38:06;;;;;;;15.52;5.10;;;13.90;96.10;;;;;;5065545;28;20107;-60
2024/01/28 11:40:39;;;;;;;23.75;6.07;;;13.70;96.80;;;;;;5062000;28;20123;-60
2024/01/28 11:43:07;;;;;;;27.65;6.85;;;13.80;96.60;;;;;;5062662;28;20135;-61
2024/01/28 11:45:36;;;;;;;31.35;12.57;;;13.60;96.40;;;;;;5063692;28;20088;-60
2024/01/28 11:48:10;;;;;;;32.60;13.18;;;13.50;97.20;;;;;;5064900;28;20096;-60
2024/01/28 11:50:38;;;;;;;35.33;11.30;;;13.60;97.50;;;;;;5063320;28;20131;-61
2024/01/28 11:53:05;;;;;;;32.70;11.18;;;13.60;98.00;;;;;;5063564;28;20073;-60
2024/01/28 11:55:34;;;;;;;28.88;12.05;;;13.60;98.10;;;;;;5063580;28;20101;-60
2024/01/28 11:58:01;;;;;;;27.65;11.45;;;13.60;98.30;;;;;;5063611;28;20152;-60
2024/01/28 12:00:28;;;;;;;34.50;12.82;;;13.40;98.40;;;;;;5065402;28;20101;-61
2024/01/28 12:02:55;;;;;;;42.90;13.82;;;13.40;99.00;;;;;;5064111;28;20088;-60
2024/01/28 12:05:21;;;;;;;32.40;13.27;;;13.40;98.90;;;;;;5064602;28;20148;-60
2024/01/28 12:07:48;;;;;;;33.25;13.13;;;13.20;99.00;;;;;;5064410;28;20449;-60
2024/01/28 12:10:14;;;;;;;27.20;12.52;;;13.10;98.90;;;;;;5061595;28;20377;-60
2024/01/28 12:12:41;;;;;;;34.55;12.10;;;13.30;99.60;;;;;;5063835;28;20123;-61
2024/01/28 12:15:09;;;;;;;33.70;11.10;;;13.30;99.40;;;;;;5062533;28;20080;-60
2024/01/28 12:17:37;;;;;;;28.25;10.90;;;13.30;99.60;;;;;;5065909;28;20080;-60
2024/01/28 12:20:04;;;;;;;26.08;11.77;;;13.30;99.20;;;;;;5068466;28;20505;-61
2024/01/28 12:22:38;;;;;;;30.23;11.55;;;13.30;99.70;;;;;;5066593;28;20576;-61
2024/01/28 12:25:09;;;;;;;24.85;10.88;;;13.20;99.60;;;;;;5065920;28;20454;-61
2024/01/28 12:27:36;;;;;;;35.65;10.52;;;13.10;99.90;;;;;;5067590;28;20104;-61
2024/01/28 12:30:04;;;;;;;36.00;12.07;;;13.20;99.90;;;;;;5068826;28;20077;-61
2024/01/28 12:32:30;;;;;;;28.73;11.85;;;13.20;99.90;;;;;;5065682;28;20115;-61
2024/01/28 12:35:03;;;;;;;38.95;12.10;;;13.00;99.90;;;;;;5067993;28;21104;-62
2024/01/28 12:37:33;;;;;;;32.92;12.02;;;13.00;99.90;;;;;;5079792;28;20069;-61
2024/01/28 12:39:59;;;;;;;34.70;13.00;;;12.90;99.90;;;;;;5066133;28;20520;-61
2024/01/28 12:42:26;;;;;;;40.83;13.57;;;12.90;99.90;;;;;;5067916;28;20121;-61
2024/01/28 12:44:53;;;;;;;43.83;13.50;;;12.80;99.90;;;;;;5067355;28;20444;-61
2024/01/28 12:47:19;;;;;;;38.67;15.25;;;12.80;99.90;;;;;;5067530;28;20069;-61
2024/01/28 12:49:46;;;;;;;52.80;18.95;;;12.70;99.90;;;;;;5067325;28;20079;-61
2024/01/28 12:52:12;;;;;;;57.95;19.67;;;12.70;99.90;;;;;;5066079;28;20077;-61
2024/01/28 12:54:39;;;;;;;59.53;20.30;;;12.70;99.90;;;;;;5066003;28;20077;-61
2024/01/28 12:57:05;;;;;;;58.90;21.98;;;12.60;99.90;;;;;;5067792;28;20085;-61
2024/01/28 12:59:32;;;;;;;64.90;21.20;;;12.70;99.90;;;;;;5068703;28;20085;-61
2024/01/28 13:01:58;;;;;;;65.38;21.85;;;12.70;99.90;;;;;;5066226;28;21431;-62
2024/01/28 13:04:25;;;;;;;42.75;19.08;;;12.60;99.90;;;;;;5066175;28;20160;-60
2024/01/28 13:06:51;;;;;;;56.38;21.10;;;12.40;99.90;;;;;;5065937;28;20093;-60
2024/01/28 13:09:18;;;;;;;50.85;20.30;;;12.40;99.90;;;;;;5067027;28;20085;-61
2024/01/28 13:11:44;;;;;;;53.40;19.55;;;12.40;99.90;;;;;;5064890;28;20089;-61
2024/01/28 13:14:12;;;;;;;54.15;20.02;;;12.30;99.90;;;;;;5065689;28;20113;-61
2024/01/28 13:16:38;;;;;;;58.55;19.52;;;12.30;99.90;;;;;;5078050;28;20073;-61
2024/01/28 13:19:05;;;;;;;53.17;18.85;;;12.30;99.90;;;;;;5067329;28;20077;-62
2024/01/28 13:21:32;;;;;;;46.47;16.13;;;12.20;99.90;;;;;;5066891;28;20101;-61
2024/01/28 13:23:58;;;;;;;45.28;16.73;;;12.10;99.90;;;;;;5065011;28;20671;-61
2024/01/28 13:26:25;;;;;;;40.70;16.38;;;12.10;99.90;;;;;;5065087;28;20112;-61
2024/01/28 13:28:51;;;;;;;43.28;16.70;;;12.20;99.90;;;;;;5066113;28;20065;-60
2024/01/28 13:31:18;;;;;;;48.05;16.13;;;12.20;99.90;;;;;;5068886;28;20642;-60
2024/01/28 13:33:44;;;;;;;40.55;16.02;;;12.20;99.90;;;;;;5065844;28;20081;-61
2024/01/28 13:36:11;;;;;;;47.00;17.48;;;12.20;99.90;;;;;;5064875;28;20156;-62
2024/01/28 13:38:37;;;;;;;44.88;15.65;;;12.20;99.90;;;;;;5065721;28;20115;-61
2024/01/28 13:41:04;;;;;;;36.00;15.13;;;12.20;99.90;;;;;;5065880;28;20135;-61
2024/01/28 13:43:34;;;;;;;37.80;15.00;;;12.20;99.90;;;;;;5064949;28;20512;-60
2024/01/28 13:46:04;;;;;;;42.28;15.43;;;12.10;99.90;;;;;;5066819;28;20164;-61
2024/01/28 13:48:30;;;;;;;34.00;14.98;;;12.10;99.90;;;;;;5067118;28;20117;-61
2024/01/28 13:50:57;;;;;;;34.45;15.40;;;12.20;99.90;;;;;;5065797;28;20127;-61
2024/01/28 13:53:23;;;;;;;40.08;15.60;;;12.10;99.90;;;;;;5066299;28;20091;-61
2024/01/28 13:55:50;;;;;;;40.55;16.17;;;12.10;99.90;;;;;;5064636;28;20080;-61
2024/01/28 13:58:17;;;;;;;40.80;15.68;;;11.90;99.90;;;;;;5066509;28;20077;-61
2024/01/28 14:00:43;;;;;;;38.30;15.02;;;11.80;99.90;;;;;;5069367;28;20069;-61
2024/01/28 14:03:11;;;;;;;31.02;14.18;;;11.70;99.90;;;;;;5065672;28;20108;-61
2024/01/28 14:05:40;;;;;;;34.33;14.52;;;11.60;99.90;;;;;;5066557;28;20131;-61
2024/01/28 14:08:06;;;;;;;36.67;16.13;;;11.60;99.90;;;;;;5067200;28;20075;-61
2024/01/28 14:10:33;;;;;;;38.97;14.40;;;11.70;99.90;;;;;;5064888;28;20078;-60
2024/01/28 14:12:59;;;;;;;34.10;14.70;;;11.70;99.90;;;;;;5064778;28;20070;-59
2024/01/28 14:15:26;;;;;;;38.50;13.13;;;11.70;99.90;;;;;;5064660;28;20093;-60
2024/01/28 14:17:52;;;;;;;41.65;14.30;;;11.60;99.90;;;;;;5065583;28;20146;-60
2024/01/28 14:20:19;;;;;;;29.55;14.40;;;11.70;99.90;;;;;;5065655;28;20073;-59
2024/01/28 14:22:45;;;;;;;39.25;13.73;;;11.70;99.90;;;;;;5065836;28;20133;-60
2024/01/28 14:25:14;;;;;;;27.13;12.73;;;11.60;99.90;;;;;;5066371;28;20077;-60
2024/01/28 14:27:40;;;;;;;29.27;13.70;;;11.50;99.90;;;;;;5062578;28;20073;-60
2024/01/28 14:30:07;;;;;;;35.22;13.57;;;11.50;99.90;;;;;;5067751;28;20443;-60
2024/01/28 14:32:34;;;;;;;28.80;13.38;;;11.50;99.90;;;;;;5065723;28;20087;-60
2024/01/28 14:35:00;;;;;;;39.03;14.13;;;11.50;99.90;;;;;;5064905;28;20456;-60
2024/01/28 14:37:27;;;;;;;39.60;14.07;;;11.60;99.90;;;;;;5065769;28;20115;-59
2024/01/28 14:39:53;;;;;;;43.47;13.57;;;11.50;99.90;;;;;;5065159;28;20103;-61
2024/01/28 14:42:20;;;;;;;32.90;13.45;;;11.40;99.90;;;;;;5062161;28;20116;-61
2024/01/28 14:44:46;;;;;;;53.10;14.52;;;11.60;99.90;;;;;;5063951;28;20069;-60
2024/01/28 14:47:14;;;;;;;35.30;14.05;;;11.50;99.90;;;;;;5065458;28;20077;-61
2024/01/28 14:49:40;;;;;;;49.20;14.40;;;11.50;99.90;;;;;;5065680;28;20114;-61
2024/01/28 14:52:07;;;;;;;50.92;13.98;;;11.50;99.90;;;;;;5064583;28;20077;-60
2024/01/28 14:54:33;;;;;;;42.08;14.40;;;11.40;99.90;;;;;;5064936;28;20077;-60
2024/01/28 14:57:01;;;;;;;57.47;14.75;;;11.50;99.90;;;;;;5065872;28;20205;-61
2024/01/28 14:59:28;;;;;;;59.65;14.98;;;11.60;99.90;;;;;;5065387;28;20077;-60
2024/01/28 15:01:54;;;;;;;48.90;14.75;;;11.60;99.90;;;;;;5065889;28;21797;-61
2024/01/28 15:04:21;;;;;;;42.58;13.27;;;11.60;99.90;;;;;;5064960;28;20069;-60